Accueil
METAR-TAF:

METAR-TAF

Aéroports :

Aéroport de Port Moresby-Jacksons

Port Moresby, Papouasie-Nouvelle-Guinée

latitude: 09-26S, longitude: 147-13E, altitude: 38 m

Observation

Le bulletin a été fait il y a 47 minutes, à 17:00 UTC
Vent 5 kt de sud-est avec des rafales jusqu'à 15 kt
Température 25°C
Humidité 83%
Pression 1007 hPa
Visibilité 10 km ou plus
Nuages épars à une hauteur de 12000 ft

METAR: AYPY 191700Z 13005G15KT 9999 SCT120 25/22 Q1007

Heure: 03:47 (17:47 UTC)

Prévision

Le bulletin a été fait il y a 15 heures et 47 minutes, à 02:00 UTC
Prévision valable du 19 à 06 UTC au 20 à 06 UTC
Vent 15 kt de sud/sud-est
Visibilité 10 km ou plus
Nuages épars à une hauteur de 2000 ft
Nuages épars à une hauteur de 14000 ft

TAF: AYPY 190200Z 1906/2006 16015KT 9999 SCT020 SCT140

Observations et prévisions météorologiques de plus de 4000 aéroports (messages METAR et TAF).

Les stations disponibles sont représentées par des disques jaunes et rouges sur la carte.

Passer la souris dessus pour voir le nom de la station.

Cliquer dessus pour voir les observations et prévisions météorologiques.

Pour changer de carte: cliquez sur les boutons verts avec une croix noire pour zoomer, sur le bouton vert avec un tiret pour effectuer un zoom arrière, ou sur les flèches vertes pour les cartes adjacentes.


METAR-TAF: